createdAt,value
2023-05-07T00:02:24.174Z,1.63
2023-05-07T00:04:53.050Z,2.20
2023-05-07T00:07:22.016Z,1.88
2023-05-07T00:09:50.737Z,1.73
2023-05-07T00:12:19.120Z,2.17
2023-05-07T00:14:48.308Z,1.90
2023-05-07T00:17:17.991Z,1.80
2023-05-07T00:19:48.067Z,2.53
2023-05-07T00:22:16.500Z,2.30
2023-05-07T00:24:46.316Z,1.90
2023-05-07T00:27:14.661Z,2.17
2023-05-07T00:29:43.984Z,1.88
2023-05-07T00:32:12.438Z,2.08
2023-05-07T00:34:43.135Z,2.03
2023-05-07T00:37:12.994Z,1.85
2023-05-07T00:39:41.352Z,1.92
2023-05-07T00:42:10.572Z,1.92
2023-05-07T00:44:38.901Z,1.77
2023-05-07T00:47:08.482Z,2.35
2023-05-07T00:49:41.061Z,2.20
2023-05-07T00:52:13.600Z,1.80
2023-05-07T00:54:43.371Z,2.13
2023-05-07T00:57:12.857Z,2.17
2023-05-07T00:59:41.803Z,2.00
2023-05-07T01:02:11.473Z,2.38
2023-05-07T01:04:39.937Z,2.15
2023-05-07T01:07:11.491Z,2.40
2023-05-07T01:09:41.025Z,2.00
2023-05-07T01:12:10.576Z,1.85
2023-05-07T01:14:39.602Z,1.90
2023-05-07T01:17:09.295Z,1.90
2023-05-07T01:19:38.951Z,2.10
2023-05-07T01:22:11.531Z,1.98
2023-05-07T01:24:54.062Z,2.15
2023-05-07T01:27:23.235Z,1.90
2023-05-07T01:29:53.996Z,1.90
2023-05-07T01:32:29.564Z,2.40
2023-05-07T01:35:00.777Z,2.35
2023-05-07T01:37:30.542Z,2.20
2023-05-07T01:40:00.595Z,1.95
2023-05-07T01:42:29.383Z,2.10
2023-05-07T01:44:58.323Z,2.35
2023-05-07T01:47:27.478Z,2.00
2023-05-07T01:49:57.030Z,1.98
2023-05-07T01:52:26.583Z,1.95
2023-05-07T01:54:55.541Z,1.90
2023-05-07T01:57:25.882Z,2.00
2023-05-07T01:59:54.627Z,2.30
2023-05-07T02:02:23.168Z,1.95
2023-05-07T02:04:52.958Z,2.03
2023-05-07T02:07:22.602Z,2.13
2023-05-07T02:09:52.309Z,2.10
2023-05-07T02:12:22.045Z,2.13
2023-05-07T02:14:51.983Z,1.90
2023-05-07T02:17:21.703Z,1.90
2023-05-07T02:19:50.424Z,1.90
2023-05-07T02:22:18.812Z,2.15
2023-05-07T02:24:48.029Z,2.38
2023-05-07T02:27:16.863Z,2.00
2023-05-07T02:29:46.696Z,2.42
2023-05-07T02:32:17.413Z,2.47
2023-05-07T02:34:45.736Z,2.08
2023-05-07T02:37:14.471Z,2.15
2023-05-07T02:39:42.872Z,2.63
2023-05-07T02:42:11.968Z,2.03
2023-05-07T02:44:40.353Z,2.15
2023-05-07T02:47:10.602Z,2.17
2023-05-07T02:49:41.444Z,1.83
2023-05-07T02:52:11.110Z,2.50
2023-05-07T02:54:40.114Z,2.40
2023-05-07T02:57:08.483Z,1.98
2023-05-07T02:59:37.433Z,2.25
2023-05-07T03:02:06.483Z,2.38
2023-05-07T03:04:34.952Z,2.20
2023-05-07T03:07:04.832Z,2.67
2023-05-07T03:09:33.656Z,2.40
2023-05-07T03:12:02.676Z,2.10
2023-05-07T03:14:31.672Z,2.10
2023-05-07T03:17:00.503Z,2.42
2023-05-07T03:19:28.886Z,2.30
2023-05-07T03:21:58.184Z,2.42
2023-05-07T03:24:27.859Z,2.50
2023-05-07T03:26:57.164Z,2.47
2023-05-07T03:29:25.645Z,2.25
2023-05-07T03:31:55.114Z,2.63
2023-05-07T03:34:23.964Z,2.33
2023-05-07T03:36:54.107Z,3.00
2023-05-07T03:39:25.353Z,2.55
2023-05-07T03:41:55.117Z,3.05
2023-05-07T03:44:24.348Z,2.67
2023-05-07T03:46:54.025Z,2.70
2023-05-07T03:49:22.913Z,2.15
2023-05-07T03:51:51.723Z,2.30
2023-05-07T03:54:21.466Z,2.30
2023-05-07T03:56:49.840Z,2.28
2023-05-07T03:59:20.146Z,2.45
2023-05-07T04:01:50.707Z,2.42
2023-05-07T04:04:23.617Z,2.30
2023-05-07T04:06:52.573Z,2.53
2023-05-07T04:09:22.048Z,2.78
2023-05-07T04:11:50.592Z,2.53
2023-05-07T04:14:20.670Z,3.10
2023-05-07T04:16:49.104Z,2.97
2023-05-07T04:19:18.092Z,2.60
2023-05-07T04:21:48.814Z,2.42
2023-05-07T04:24:17.212Z,2.90
2023-05-07T04:26:47.096Z,2.55
2023-05-07T04:29:16.221Z,3.15
2023-05-07T04:31:46.635Z,3.10
2023-05-07T04:34:16.270Z,2.90
2023-05-07T04:36:44.814Z,3.17
2023-05-07T04:39:15.964Z,2.88
2023-05-07T04:41:47.128Z,3.03
2023-05-07T04:44:15.650Z,3.40
2023-05-07T04:46:47.086Z,3.13
2023-05-07T04:49:15.483Z,3.50
2023-05-07T04:51:45.051Z,3.08
2023-05-07T04:54:14.282Z,3.30
2023-05-07T04:56:43.360Z,3.95
2023-05-07T04:59:12.324Z,3.28
2023-05-07T05:01:41.562Z,3.20
2023-05-07T05:04:12.215Z,3.80
2023-05-07T05:06:41.984Z,3.53
2023-05-07T05:09:12.520Z,3.78
2023-05-07T05:11:43.189Z,3.45
2023-05-07T05:14:11.588Z,3.03
2023-05-07T05:16:40.025Z,3.45
2023-05-07T05:19:08.961Z,3.22
2023-05-07T05:21:41.576Z,3.92
2023-05-07T05:24:11.939Z,3.10
2023-05-07T05:26:41.107Z,3.53
2023-05-07T05:29:10.012Z,3.30
2023-05-07T05:31:42.789Z,3.17
2023-05-07T05:34:11.810Z,3.45
2023-05-07T05:36:41.832Z,3.20
2023-05-07T05:39:11.829Z,3.53
2023-05-07T05:41:40.247Z,3.60
2023-05-07T05:44:10.507Z,3.70
2023-05-07T05:46:39.912Z,4.28
2023-05-07T05:49:08.692Z,3.80
2023-05-07T05:51:37.881Z,3.92
2023-05-07T05:54:07.916Z,4.32
2023-05-07T05:56:39.261Z,4.45
2023-05-07T05:59:07.818Z,4.32
2023-05-07T06:01:37.224Z,4.13
2023-05-07T06:04:06.786Z,3.97
2023-05-07T06:06:36.824Z,4.40
2023-05-07T06:09:05.683Z,4.78
2023-05-07T06:11:42.479Z,4.88
2023-05-07T06:14:12.320Z,5.07
2023-05-07T06:16:41.758Z,5.00
2023-05-07T06:19:10.321Z,4.68
2023-05-07T06:21:41.140Z,4.55
2023-05-07T06:24:10.347Z,5.07
2023-05-07T06:26:42.015Z,5.03
2023-05-07T06:29:10.860Z,4.38
2023-05-07T06:31:42.087Z,4.30
2023-05-07T06:34:15.134Z,4.20
2023-05-07T06:36:44.244Z,4.35
2023-05-07T06:39:21.484Z,4.15
2023-05-07T06:41:51.478Z,4.30
2023-05-07T06:44:28.092Z,3.78
2023-05-07T06:47:09.464Z,3.85
2023-05-07T06:49:40.650Z,3.75
2023-05-07T06:52:08.992Z,3.33
2023-05-07T06:54:39.021Z,3.88
2023-05-07T06:57:09.102Z,4.13
2023-05-07T06:59:38.422Z,4.22
2023-05-07T07:02:06.748Z,4.43
2023-05-07T07:04:36.436Z,3.85
2023-05-07T07:07:08.329Z,3.58
2023-05-07T07:09:38.121Z,4.32
2023-05-07T07:12:09.341Z,4.13
2023-05-07T07:14:41.489Z,4.35
2023-05-07T07:17:09.873Z,4.18
2023-05-07T07:19:40.092Z,4.82
2023-05-07T07:22:08.674Z,4.82
2023-05-07T07:24:37.361Z,5.05
2023-05-07T07:27:10.310Z,5.53
2023-05-07T07:29:38.760Z,5.57
2023-05-07T07:32:07.590Z,5.70
2023-05-07T07:34:36.016Z,5.38
2023-05-07T07:37:07.537Z,4.93
2023-05-07T07:39:38.823Z,5.32
2023-05-07T07:42:10.828Z,4.70
2023-05-07T07:44:40.638Z,4.50
2023-05-07T07:47:13.134Z,4.38
2023-05-07T07:49:42.847Z,5.05
2023-05-07T07:52:12.403Z,5.00
2023-05-07T07:54:41.418Z,5.35
2023-05-07T07:57:12.892Z,5.35
2023-05-07T07:59:43.720Z,5.50
2023-05-07T08:02:13.972Z,5.40
2023-05-07T08:07:31.384Z,5.90
2023-05-07T08:09:59.744Z,6.25
2023-05-07T08:12:30.106Z,6.75
2023-05-07T08:14:58.520Z,7.50
2023-05-07T08:17:28.131Z,6.03
2023-05-07T08:19:58.368Z,6.43
2023-05-07T08:22:26.782Z,7.32
2023-05-07T08:24:57.088Z,6.78
2023-05-07T08:27:25.458Z,6.90
2023-05-07T08:29:56.225Z,7.90
2023-05-07T08:32:25.241Z,6.40
2023-05-07T08:34:55.269Z,7.93
2023-05-07T08:37:23.956Z,7.10
2023-05-07T08:39:52.933Z,6.78
2023-05-07T08:42:25.841Z,7.00
2023-05-07T08:45:01.533Z,7.43
2023-05-07T08:47:36.227Z,7.15
2023-05-07T08:50:08.008Z,6.70
2023-05-07T08:52:37.510Z,6.93
2023-05-07T08:55:08.669Z,6.68
2023-05-07T08:57:40.021Z,7.50
2023-05-07T09:00:14.329Z,7.70
2023-05-07T09:02:44.274Z,7.20
2023-05-07T09:05:14.462Z,6.10
2023-05-07T09:07:43.058Z,6.47
2023-05-07T09:10:14.349Z,7.38
2023-05-07T09:12:44.280Z,6.80
2023-05-07T09:15:17.959Z,7.03
2023-05-07T09:17:46.679Z,7.07
2023-05-07T09:20:16.361Z,6.47
2023-05-07T09:22:45.285Z,6.53
2023-05-07T09:25:18.154Z,7.30
2023-05-07T09:27:47.307Z,104.78
2023-05-07T09:30:17.620Z,107.72
2023-05-07T09:32:47.111Z,43.67
2023-05-07T09:35:22.629Z,11.30
2023-05-07T09:37:57.188Z,12.57
2023-05-07T09:40:28.398Z,27.55
2023-05-07T09:43:10.574Z,18.77
2023-05-07T09:45:44.497Z,4.57
2023-05-07T09:48:17.925Z,10.45
2023-05-07T09:50:51.669Z,4.65
2023-05-07T09:53:24.735Z,4.60
2023-05-07T09:55:55.643Z,2.95
2023-05-07T09:58:25.823Z,4.03
2023-05-07T10:00:58.203Z,3.35
2023-05-07T10:03:30.501Z,2.40
2023-05-07T10:06:07.174Z,3.42
2023-05-07T10:08:37.813Z,4.72
2023-05-07T10:11:08.961Z,8.05
2023-05-07T10:13:38.919Z,5.57
2023-05-07T10:16:11.611Z,16.85
2023-05-07T10:18:49.373Z,46.15
2023-05-07T10:21:25.209Z,8.07
2023-05-07T10:24:00.847Z,11.77
2023-05-07T10:26:33.128Z,23.48
2023-05-07T10:29:05.930Z,56.03
2023-05-07T10:31:51.444Z,2.70
2023-05-07T10:34:24.768Z,1.58
2023-05-07T10:36:54.904Z,1.65
2023-05-07T10:39:24.900Z,1.40
2023-05-07T10:41:55.026Z,2.30
2023-05-07T10:44:30.399Z,1.90
2023-05-07T10:47:10.793Z,1.70
2023-05-07T10:50:14.164Z,2.10
2023-05-07T10:52:45.068Z,1.40
2023-05-07T10:55:26.302Z,2.70
2023-05-07T10:58:32.017Z,2.42
2023-05-07T11:01:14.269Z,1.90
2023-05-07T11:04:16.514Z,1.70
2023-05-07T11:07:34.045Z,1.75
2023-05-07T11:10:14.307Z,1.70
2023-05-07T11:12:57.286Z,1.75
2023-05-07T11:15:37.596Z,1.80
2023-05-07T11:18:15.006Z,1.80
2023-05-07T11:20:59.034Z,2.10
2023-05-07T11:24:01.545Z,2.13
2023-05-07T11:26:50.778Z,1.90
2023-05-07T11:29:23.728Z,2.25
2023-05-07T11:31:58.806Z,2.50
2023-05-07T11:34:33.416Z,2.70
2023-05-07T11:37:04.589Z,2.28
2023-05-07T11:39:44.493Z,2.15
2023-05-07T11:42:27.613Z,2.05
2023-05-07T11:44:56.808Z,2.83
2023-05-07T11:47:26.231Z,2.28
2023-05-07T11:49:56.234Z,2.88
2023-05-07T11:52:26.473Z,2.40
2023-05-07T11:54:56.822Z,2.30
2023-05-07T11:57:26.515Z,2.25
2023-05-07T11:59:55.558Z,2.20
2023-05-07T12:02:26.400Z,2.05
2023-05-07T12:04:55.885Z,2.50
2023-05-07T12:07:28.066Z,2.22
2023-05-07T12:09:57.350Z,2.35
2023-05-07T12:12:25.754Z,2.00
2023-05-07T12:14:54.614Z,1.95
2023-05-07T12:17:23.291Z,2.00
2023-05-07T12:19:53.574Z,1.90
2023-05-07T12:22:22.334Z,2.10
2023-05-07T12:24:59.590Z,1.95
2023-05-07T12:27:28.272Z,2.08
2023-05-07T12:29:57.005Z,1.70
2023-05-07T12:32:25.438Z,1.85
2023-05-07T12:34:54.741Z,1.88
2023-05-07T12:37:27.901Z,2.00
2023-05-07T12:40:11.224Z,1.90
2023-05-07T12:42:41.881Z,1.83
2023-05-07T12:45:12.471Z,1.80
2023-05-07T12:47:41.585Z,1.70
2023-05-07T12:50:10.307Z,1.50
2023-05-07T12:52:39.388Z,1.60
2023-05-07T12:55:10.761Z,1.50
2023-05-07T12:57:41.250Z,1.40
2023-05-07T13:00:10.789Z,1.38
2023-05-07T13:02:41.710Z,1.40
2023-05-07T13:05:10.881Z,1.40
2023-05-07T13:07:40.142Z,1.33
2023-05-07T13:10:11.540Z,1.25
2023-05-07T13:12:40.017Z,1.63
2023-05-07T13:15:09.477Z,1.48
2023-05-07T13:17:38.538Z,1.20
2023-05-07T13:20:09.280Z,1.40
2023-05-07T13:22:37.973Z,1.42
2023-05-07T13:25:08.019Z,1.70
2023-05-07T13:27:38.554Z,1.40
2023-05-07T13:30:09.615Z,1.20
2023-05-07T13:32:38.038Z,1.70
2023-05-07T13:35:08.347Z,1.70
2023-05-07T13:37:36.816Z,1.23
2023-05-07T13:40:07.078Z,1.58
2023-05-07T13:42:35.477Z,1.30
2023-05-07T13:45:06.161Z,1.50
2023-05-07T13:47:34.622Z,1.50
2023-05-07T13:50:04.149Z,1.60
2023-05-07T13:52:32.662Z,1.58
2023-05-07T13:55:01.939Z,1.40
2023-05-07T13:57:30.352Z,1.73
2023-05-07T13:59:59.506Z,1.40
2023-05-07T14:02:29.891Z,1.70
2023-05-07T14:04:58.348Z,1.20
2023-05-07T14:07:27.594Z,1.42
2023-05-07T14:09:56.329Z,1.30
2023-05-07T14:12:25.565Z,1.48
2023-05-07T14:14:54.353Z,1.20
2023-05-07T14:17:24.594Z,1.48
2023-05-07T14:19:55.806Z,1.20
2023-05-07T14:22:24.782Z,1.40
2023-05-07T14:25:05.927Z,1.50
2023-05-07T14:27:36.991Z,1.35
2023-05-07T14:30:05.866Z,1.42
2023-05-07T14:32:35.243Z,1.10
2023-05-07T14:35:05.630Z,1.30
2023-05-07T14:37:34.990Z,1.48
2023-05-07T14:40:03.701Z,1.50
2023-05-07T14:42:32.147Z,1.33
2023-05-07T14:45:01.326Z,1.20
2023-05-07T14:47:29.883Z,1.00
2023-05-07T14:49:59.819Z,1.05
2023-05-07T14:52:29.557Z,1.20
2023-05-07T14:54:58.932Z,1.05
2023-05-07T14:57:27.337Z,1.10
2023-05-07T14:59:56.103Z,1.00
2023-05-07T15:02:24.616Z,1.33
2023-05-07T15:04:53.973Z,1.13
2023-05-07T15:07:22.311Z,1.00
2023-05-07T15:09:53.194Z,1.33
2023-05-07T15:12:22.233Z,1.30
2023-05-07T15:14:50.612Z,1.13
2023-05-07T15:17:20.514Z,1.20
2023-05-07T15:19:48.928Z,0.90
2023-05-07T15:22:18.394Z,0.90
2023-05-07T15:24:46.785Z,1.13
2023-05-07T15:27:18.947Z,1.25
2023-05-07T15:29:47.437Z,1.10
2023-05-07T15:32:15.871Z,1.20
2023-05-07T15:34:45.227Z,1.13
2023-05-07T15:37:14.716Z,1.08
2023-05-07T15:39:44.149Z,1.10
2023-05-07T15:42:12.687Z,1.15
2023-05-07T15:44:43.746Z,1.90
2023-05-07T15:47:14.577Z,1.58
2023-05-07T15:49:44.214Z,1.40
2023-05-07T15:52:15.020Z,1.38
2023-05-07T15:54:43.416Z,1.30
2023-05-07T15:57:12.778Z,1.40
2023-05-07T15:59:43.436Z,1.67
2023-05-07T16:02:12.890Z,1.80
2023-05-07T16:04:42.064Z,2.30
2023-05-07T16:07:12.991Z,3.10
2023-05-07T16:09:41.842Z,2.75
2023-05-07T16:12:12.077Z,2.65
2023-05-07T16:14:41.779Z,3.00
2023-05-07T16:17:11.801Z,2.67
2023-05-07T16:19:40.616Z,2.67
2023-05-07T16:22:09.048Z,2.63
2023-05-07T16:24:38.345Z,2.78
2023-05-07T16:27:07.384Z,2.75
2023-05-07T16:29:37.347Z,2.95
2023-05-07T16:32:07.424Z,2.50
2023-05-07T16:34:37.069Z,2.60
2023-05-07T16:37:05.778Z,2.40
2023-05-07T16:39:34.145Z,2.78
2023-05-07T16:42:03.424Z,2.58
2023-05-07T16:44:31.754Z,3.00
2023-05-07T16:47:00.723Z,2.67
2023-05-07T16:49:30.435Z,2.30
2023-05-07T16:51:59.310Z,2.33
2023-05-07T16:54:27.660Z,2.33
2023-05-07T16:56:56.534Z,2.80
2023-05-07T16:59:24.919Z,2.72
2023-05-07T17:01:54.417Z,2.60
2023-05-07T17:04:24.036Z,2.25
2023-05-07T17:06:54.513Z,2.63
2023-05-07T17:09:22.959Z,2.75
2023-05-07T17:11:51.440Z,2.20
2023-05-07T17:14:19.862Z,2.42
2023-05-07T17:16:48.508Z,2.65
2023-05-07T17:19:16.868Z,2.58
2023-05-07T17:21:45.291Z,2.90
2023-05-07T17:24:15.016Z,2.80
2023-05-07T17:26:43.815Z,2.60
2023-05-07T17:29:12.164Z,2.65
2023-05-07T17:31:40.858Z,2.60
2023-05-07T17:34:09.715Z,2.63
2023-05-07T17:36:38.218Z,2.70
2023-05-07T17:39:07.363Z,2.50
2023-05-07T17:41:38.224Z,2.92
2023-05-07T17:44:07.084Z,2.75
2023-05-07T17:46:35.438Z,2.45
2023-05-07T17:49:04.846Z,2.55
2023-05-07T17:51:45.919Z,2.25
2023-05-07T17:54:22.030Z,2.50
2023-05-07T17:56:52.265Z,2.20
2023-05-07T17:59:20.783Z,2.40
2023-05-07T18:01:49.356Z,2.60
2023-05-07T18:04:19.969Z,2.90
2023-05-07T18:06:48.551Z,2.80
2023-05-07T18:09:17.500Z,2.60
2023-05-07T18:11:46.478Z,3.00
2023-05-07T18:14:16.311Z,2.58
2023-05-07T18:16:45.201Z,2.38
2023-05-07T18:19:14.372Z,2.75
2023-05-07T18:21:43.288Z,3.10
2023-05-07T18:24:12.148Z,2.90
2023-05-07T18:26:41.288Z,3.50
2023-05-07T18:29:09.715Z,2.85
2023-05-07T18:31:39.642Z,3.08
2023-05-07T18:34:10.193Z,2.85
2023-05-07T18:36:38.578Z,2.80
2023-05-07T18:39:10.576Z,2.80
2023-05-07T18:41:39.082Z,2.70
2023-05-07T18:44:07.709Z,2.50
2023-05-07T18:46:37.587Z,2.97
2023-05-07T18:49:07.856Z,2.80
2023-05-07T18:51:36.870Z,2.85
2023-05-07T18:54:05.598Z,2.75
2023-05-07T18:56:34.891Z,2.65
2023-05-07T18:59:03.230Z,3.20
2023-05-07T19:01:31.666Z,3.30
2023-05-07T19:04:00.465Z,2.95
2023-05-07T19:06:33.155Z,3.08
2023-05-07T19:09:02.786Z,3.10
2023-05-07T19:11:31.739Z,3.38
2023-05-07T19:14:02.963Z,3.17
2023-05-07T19:16:32.866Z,3.13
2023-05-07T19:19:01.408Z,3.40
2023-05-07T19:21:31.651Z,3.25
2023-05-07T19:24:00.116Z,3.60
2023-05-07T19:26:28.494Z,2.92
2023-05-07T19:29:12.154Z,3.50
2023-05-07T19:31:45.939Z,3.60
2023-05-07T19:34:14.692Z,3.40
2023-05-07T19:36:45.047Z,3.72
2023-05-07T19:39:13.946Z,4.07
2023-05-07T19:41:42.935Z,3.92
2023-05-07T19:44:11.364Z,3.65
2023-05-07T19:46:44.571Z,4.03
2023-05-07T19:49:13.320Z,3.92
2023-05-07T19:51:42.211Z,4.50
2023-05-07T19:54:12.081Z,4.85
2023-05-07T19:56:41.872Z,4.70
2023-05-07T19:59:10.412Z,3.70
2023-05-07T20:01:40.362Z,4.38
2023-05-07T20:04:08.946Z,4.95
2023-05-07T20:06:37.374Z,4.55
2023-05-07T20:09:07.914Z,4.90
2023-05-07T20:11:38.126Z,4.80
2023-05-07T20:14:06.932Z,4.78
2023-05-07T20:16:38.138Z,5.05
2023-05-07T20:19:06.629Z,5.13
2023-05-07T20:21:35.488Z,5.00
2023-05-07T20:24:03.856Z,4.85
2023-05-07T20:26:32.918Z,4.70
2023-05-07T20:29:03.409Z,4.65
2023-05-07T20:31:34.926Z,5.28
2023-05-07T20:34:03.764Z,4.43
2023-05-07T20:36:32.643Z,4.80
2023-05-07T20:39:02.404Z,4.72
2023-05-07T20:41:30.928Z,5.28
2023-05-07T20:44:00.812Z,4.55
2023-05-07T20:46:30.931Z,5.43
2023-05-07T20:49:00.110Z,5.22
2023-05-07T20:51:28.482Z,5.70
2023-05-07T20:53:58.371Z,5.25
2023-05-07T20:56:26.760Z,5.20
2023-05-07T20:58:56.430Z,5.85
2023-05-07T21:01:24.818Z,5.35
2023-05-07T21:03:55.482Z,5.13
2023-05-07T21:06:24.475Z,5.38
2023-05-07T21:08:52.852Z,5.32
2023-05-07T21:11:22.913Z,5.80
2023-05-07T21:13:51.904Z,4.75
2023-05-07T21:16:22.048Z,5.47
2023-05-07T21:18:50.459Z,6.10
2023-05-07T21:21:21.800Z,5.32
2023-05-07T21:23:50.405Z,5.63
2023-05-07T21:26:19.880Z,5.05
2023-05-07T21:28:48.349Z,6.07
2023-05-07T21:31:17.901Z,5.20
2023-05-07T21:33:46.778Z,5.18
2023-05-07T21:36:15.190Z,5.78
2023-05-07T21:38:47.515Z,5.53
2023-05-07T21:41:15.913Z,5.95
2023-05-07T21:43:44.761Z,5.30
2023-05-07T21:46:13.483Z,6.13
2023-05-07T21:48:41.920Z,5.47
2023-05-07T21:51:10.290Z,5.63
2023-05-07T21:53:39.246Z,5.45
2023-05-07T21:56:09.085Z,5.53
2023-05-07T21:58:39.313Z,5.03
2023-05-07T22:01:09.439Z,5.55
2023-05-07T22:03:38.747Z,5.38
2023-05-07T22:06:07.910Z,5.78
2023-05-07T22:08:37.330Z,5.07
2023-05-07T22:11:05.793Z,5.38
2023-05-07T22:13:35.844Z,5.55
2023-05-07T22:16:04.817Z,5.90
2023-05-07T22:18:33.187Z,5.47
2023-05-07T22:21:02.450Z,6.28
2023-05-07T22:23:30.760Z,5.32
2023-05-07T22:25:59.606Z,4.93
2023-05-07T22:28:27.966Z,5.28
2023-05-07T22:30:58.462Z,6.05
2023-05-07T22:33:26.805Z,5.47
2023-05-07T22:35:56.106Z,5.30
2023-05-07T22:38:25.655Z,5.28
2023-05-07T22:40:54.154Z,5.22
2023-05-07T22:43:22.924Z,5.28
2023-05-07T22:45:51.384Z,5.40
2023-05-07T22:48:22.167Z,5.10
2023-05-07T22:50:50.583Z,5.20
2023-05-07T22:53:21.053Z,5.13
2023-05-07T22:55:49.440Z,4.65
2023-05-07T22:58:18.738Z,5.00
2023-05-07T23:00:47.227Z,5.72
2023-05-07T23:03:16.213Z,5.40
2023-05-07T23:05:47.024Z,5.07
2023-05-07T23:08:15.758Z,5.65
2023-05-07T23:10:45.170Z,5.80
2023-05-07T23:13:17.162Z,5.13
2023-05-07T23:15:46.719Z,4.82
2023-05-07T23:18:15.030Z,4.93
2023-05-07T23:20:44.754Z,4.90
2023-05-07T23:23:14.417Z,4.50
2023-05-07T23:25:43.421Z,5.57
2023-05-07T23:28:11.753Z,5.18
2023-05-07T23:30:41.935Z,4.70
2023-05-07T23:33:10.288Z,5.65
2023-05-07T23:35:39.653Z,5.05
2023-05-07T23:38:08.232Z,4.88
2023-05-07T23:40:39.093Z,5.05
2023-05-07T23:43:08.269Z,4.40
2023-05-07T23:45:36.645Z,4.30
2023-05-07T23:48:06.576Z,4.70
2023-05-07T23:50:35.233Z,4.78
2023-05-07T23:53:04.350Z,4.20
2023-05-07T23:55:32.745Z,4.82
2023-05-07T23:58:03.318Z,4.60
